createdAt,value
2022-12-25T00:01:54.640Z,4.68
2022-12-25T00:04:22.023Z,4.95
2022-12-25T00:06:49.444Z,5.88
2022-12-25T00:09:17.284Z,6.30
2022-12-25T00:11:44.738Z,5.45
2022-12-25T00:14:12.396Z,5.80
2022-12-25T00:16:39.793Z,5.57
2022-12-25T00:19:07.294Z,4.85
2022-12-25T00:21:34.848Z,3.78
2022-12-25T00:24:03.514Z,4.27
2022-12-25T00:26:31.004Z,4.18
2022-12-25T00:28:59.028Z,4.13
2022-12-25T00:31:26.714Z,3.85
2022-12-25T00:33:54.626Z,4.25
2022-12-25T00:36:23.709Z,4.60
2022-12-25T00:38:51.271Z,4.40
2022-12-25T00:41:43.315Z,4.33
2022-12-25T00:44:13.831Z,4.60
2022-12-25T00:46:42.522Z,5.65
2022-12-25T00:49:11.839Z,5.85
2022-12-25T00:51:40.172Z,6.05
2022-12-25T00:54:07.725Z,7.03
2022-12-25T00:56:35.976Z,7.10
2022-12-25T00:59:06.385Z,11.68
2022-12-25T01:01:34.698Z,10.95
2022-12-25T01:04:05.683Z,7.50
2022-12-25T01:06:33.535Z,7.03
2022-12-25T01:09:20.829Z,7.03
2022-12-25T01:11:48.289Z,6.82
2022-12-25T01:14:15.900Z,6.97
2022-12-25T01:16:43.591Z,6.47
2022-12-25T01:19:11.711Z,6.32
2022-12-25T01:21:39.448Z,6.22
2022-12-25T01:24:07.360Z,10.25
2022-12-25T01:26:34.794Z,11.05
2022-12-25T01:29:02.689Z,10.38
2022-12-25T01:31:30.141Z,13.50
2022-12-25T01:33:58.001Z,13.73
2022-12-25T01:36:43.905Z,11.82
2022-12-25T01:39:27.426Z,12.65
2022-12-25T01:42:07.922Z,13.18
2022-12-25T01:47:34.168Z,9.27
2022-12-25T01:50:01.813Z,7.38
2022-12-25T01:52:31.102Z,7.40
2022-12-25T01:55:04.182Z,8.25
2022-12-25T01:57:36.278Z,10.40
2022-12-25T02:00:11.603Z,11.50
2022-12-25T02:02:41.363Z,13.18
2022-12-25T02:05:31.680Z,13.27
2022-12-25T02:08:11.176Z,13.75
2022-12-25T02:10:39.734Z,12.88
2022-12-25T02:13:08.140Z,14.57
2022-12-25T02:16:12.819Z,12.50
2022-12-25T02:19:00.956Z,10.07
2022-12-25T02:21:52.981Z,11.40
2022-12-25T02:24:35.509Z,9.80
2022-12-25T02:27:21.836Z,9.70
2022-12-25T02:30:10.552Z,9.82
2022-12-25T02:32:49.579Z,9.05
2022-12-25T02:35:35.759Z,8.65
2022-12-25T02:38:13.328Z,7.18
2022-12-25T02:40:51.310Z,7.90
2022-12-25T02:43:48.134Z,6.55
2022-12-25T02:46:40.411Z,6.13
2022-12-25T02:49:34.760Z,6.00
2022-12-25T02:52:30.347Z,6.25
2022-12-25T02:55:27.841Z,6.30
2022-12-25T03:01:08.862Z,5.90
2022-12-25T03:04:00.688Z,6.20
2022-12-25T03:06:44.859Z,5.70
2022-12-25T03:09:48.079Z,6.10
2022-12-25T03:12:34.509Z,5.38
2022-12-25T03:15:21.691Z,5.38
2022-12-25T03:17:49.093Z,5.72
2022-12-25T03:20:35.677Z,5.90
2022-12-25T03:23:22.391Z,5.85
2022-12-25T03:26:08.402Z,5.55
2022-12-25T03:28:36.980Z,5.72
2022-12-25T03:31:20.831Z,5.60
2022-12-25T03:34:25.060Z,5.75
2022-12-25T03:37:29.844Z,5.88
2022-12-25T03:40:24.591Z,5.97
2022-12-25T03:43:46.668Z,5.97
2022-12-25T03:46:39.226Z,5.30
2022-12-25T03:49:43.881Z,4.43
2022-12-25T03:52:34.035Z,4.57
2022-12-25T03:55:27.520Z,3.80
2022-12-25T03:58:13.592Z,3.10
2022-12-25T04:00:59.563Z,3.17
2022-12-25T04:03:45.541Z,3.13
2022-12-25T04:06:31.378Z,3.00
2022-12-25T04:09:17.191Z,3.50
2022-12-25T04:12:03.803Z,3.35
2022-12-25T04:14:49.725Z,2.50
2022-12-25T04:17:35.712Z,3.65
2022-12-25T04:20:22.044Z,3.40
2022-12-25T04:23:08.261Z,2.88
2022-12-25T04:25:54.476Z,4.20
2022-12-25T04:28:40.658Z,3.60
2022-12-25T04:31:26.954Z,3.20
2022-12-25T04:34:13.397Z,4.10
2022-12-25T04:36:40.894Z,3.60
2022-12-25T04:39:10.684Z,3.22
2022-12-25T04:41:38.059Z,3.05
2022-12-25T04:44:05.579Z,3.05
2022-12-25T04:46:33.028Z,2.88
2022-12-25T04:49:00.526Z,2.90
2022-12-25T04:51:27.922Z,2.67
2022-12-25T04:53:56.571Z,3.30
2022-12-25T04:56:24.119Z,3.17
2022-12-25T04:58:51.509Z,2.70
2022-12-25T05:01:19.069Z,3.03
2022-12-25T05:03:46.603Z,3.23
2022-12-25T05:06:14.119Z,2.55
2022-12-25T05:08:41.628Z,2.70
2022-12-25T05:11:13.302Z,2.03
2022-12-25T05:13:41.408Z,2.25
2022-12-25T05:16:18.503Z,2.50
2022-12-25T05:18:49.220Z,2.60
2022-12-25T05:21:17.768Z,2.28
2022-12-25T05:26:25.465Z,3.00
2022-12-25T05:28:54.096Z,3.28
2022-12-25T05:33:52.728Z,2.80
2022-12-25T05:36:20.378Z,2.40
2022-12-25T05:38:48.242Z,2.60
2022-12-25T05:41:15.718Z,3.08
2022-12-25T05:43:43.307Z,2.58
2022-12-25T05:46:13.286Z,2.30
2022-12-25T05:48:40.759Z,2.42
2022-12-25T05:51:12.381Z,2.55
2022-12-25T05:53:43.489Z,2.97
2022-12-25T05:56:11.180Z,2.70
2022-12-25T05:58:40.284Z,4.43
2022-12-25T06:01:15.241Z,3.42
2022-12-25T06:03:42.875Z,2.95
2022-12-25T06:06:11.510Z,4.07
2022-12-25T06:11:08.593Z,3.38
2022-12-25T06:13:37.022Z,3.40
2022-12-25T06:16:11.087Z,3.58
2022-12-25T06:18:43.583Z,4.13
2022-12-25T06:21:13.987Z,4.97
2022-12-25T06:23:42.530Z,3.40
2022-12-25T06:26:15.467Z,4.30
2022-12-25T06:28:43.553Z,4.20
2022-12-25T06:31:20.400Z,3.75
2022-12-25T06:33:48.735Z,3.63
2022-12-25T06:36:20.621Z,4.20
2022-12-25T06:38:48.853Z,4.00
2022-12-25T06:41:21.264Z,3.45
2022-12-25T06:44:00.844Z,3.88
2022-12-25T06:46:30.500Z,5.90
2022-12-25T06:48:59.753Z,7.95
2022-12-25T06:51:31.497Z,6.55
2022-12-25T06:54:03.806Z,10.23
2022-12-25T06:56:33.181Z,4.47
2022-12-25T06:59:04.980Z,3.55
2022-12-25T07:01:42.203Z,3.53
2022-12-25T07:04:40.633Z,5.07
2022-12-25T07:07:09.920Z,4.47
2022-12-25T07:09:42.470Z,4.03
2022-12-25T07:12:17.806Z,3.35
2022-12-25T07:14:48.857Z,4.25
2022-12-25T07:17:17.424Z,6.50
2022-12-25T07:19:47.020Z,8.93
2022-12-25T07:22:15.920Z,11.13
2022-12-25T07:24:44.786Z,12.32
2022-12-25T07:27:12.425Z,14.20
2022-12-25T07:29:40.052Z,10.35
2022-12-25T07:32:07.574Z,10.63
2022-12-25T07:34:35.012Z,10.57
2022-12-25T07:37:02.676Z,8.95
2022-12-25T07:39:30.360Z,10.82
2022-12-25T07:41:57.780Z,12.60
2022-12-25T07:44:28.183Z,9.43
2022-12-25T07:46:55.634Z,7.78
2022-12-25T07:49:23.149Z,17.73
2022-12-25T07:51:50.680Z,21.90
2022-12-25T07:54:18.349Z,21.70
2022-12-25T07:56:45.887Z,11.93
2022-12-25T07:59:13.443Z,5.20
2022-12-25T08:01:40.953Z,5.28
2022-12-25T08:04:11.669Z,6.80
2022-12-25T08:06:39.402Z,7.30
2022-12-25T08:09:12.099Z,7.78
2022-12-25T08:11:40.101Z,8.60
2022-12-25T08:14:09.191Z,8.32
2022-12-25T08:16:41.518Z,9.45
2022-12-25T08:19:10.197Z,8.07
2022-12-25T08:21:38.561Z,4.30
2022-12-25T08:24:06.588Z,4.10
2022-12-25T08:26:34.329Z,4.38
2022-12-25T08:29:02.309Z,3.60
2022-12-25T08:31:30.578Z,3.50
2022-12-25T08:33:59.098Z,3.83
2022-12-25T08:36:27.321Z,5.15
2022-12-25T08:39:02.117Z,7.60
2022-12-25T08:41:30.372Z,6.10
2022-12-25T08:43:58.311Z,7.95
2022-12-25T08:46:25.918Z,7.72
2022-12-25T08:51:23.350Z,7.05
2022-12-25T08:53:53.643Z,11.48
2022-12-25T08:56:21.186Z,10.65
2022-12-25T08:58:48.590Z,6.25
2022-12-25T09:01:16.313Z,5.35
2022-12-25T09:06:16.457Z,14.77
2022-12-25T09:08:49.220Z,5.55
2022-12-25T09:11:20.928Z,30.48
2022-12-25T09:13:49.213Z,19.30
2022-12-25T09:16:21.025Z,23.85
2022-12-25T09:18:49.043Z,29.10
2022-12-25T09:21:17.996Z,24.92
2022-12-25T09:23:45.655Z,24.17
2022-12-25T09:26:16.117Z,26.27
2022-12-25T09:28:50.613Z,27.27
2022-12-25T09:31:20.738Z,27.50
2022-12-25T09:33:49.314Z,30.70
2022-12-25T09:36:16.885Z,36.03
2022-12-25T09:38:44.362Z,38.75
2022-12-25T09:44:16.372Z,45.78
2022-12-25T09:47:02.519Z,51.05
2022-12-25T09:50:04.236Z,48.80
2022-12-25T09:52:56.365Z,36.95
2022-12-25T09:55:27.002Z,55.45
2022-12-25T09:57:58.809Z,57.28
2022-12-25T10:00:35.143Z,57.83
2022-12-25T10:03:58.062Z,40.95
2022-12-25T10:06:44.647Z,47.03
2022-12-25T10:09:39.960Z,32.40
2022-12-25T10:12:34.741Z,31.63
2022-12-25T10:15:39.129Z,41.03
2022-12-25T10:18:17.984Z,35.47
2022-12-25T10:20:54.892Z,33.83
2022-12-25T10:23:37.112Z,24.38
2022-12-25T10:26:16.516Z,28.25
2022-12-25T10:28:51.204Z,24.90
2022-12-25T10:31:26.985Z,26.88
2022-12-25T10:33:55.131Z,26.02
2022-12-25T10:36:29.230Z,30.35
2022-12-25T10:38:57.335Z,10.95
2022-12-25T10:42:08.629Z,17.17
2022-12-25T10:44:36.689Z,19.33
2022-12-25T10:47:05.248Z,22.05
2022-12-25T10:49:39.137Z,19.88
2022-12-25T10:52:29.031Z,25.55
2022-12-25T10:54:57.134Z,16.52
2022-12-25T10:57:26.599Z,17.45
2022-12-25T10:59:56.845Z,14.57
2022-12-25T11:02:39.221Z,18.60
2022-12-25T11:05:20.975Z,18.15
2022-12-25T11:07:54.366Z,24.67
2022-12-25T11:10:32.885Z,19.00
2022-12-25T11:13:02.572Z,15.70
2022-12-25T11:15:44.826Z,13.70
2022-12-25T11:18:22.637Z,15.05
2022-12-25T11:20:58.014Z,15.75
2022-12-25T11:23:29.491Z,14.60
2022-12-25T11:26:05.316Z,14.20
2022-12-25T11:28:37.020Z,14.98
2022-12-25T11:31:19.202Z,16.60
2022-12-25T11:34:55.509Z,14.88
2022-12-25T11:37:35.576Z,15.85
2022-12-25T11:40:05.240Z,12.30
2022-12-25T11:42:41.121Z,15.30
2022-12-25T11:45:45.335Z,7.18
2022-12-25T11:48:33.628Z,12.93
2022-12-25T11:51:05.122Z,8.02
2022-12-25T11:53:48.194Z,9.50
2022-12-25T11:56:21.667Z,11.38
2022-12-25T11:58:58.317Z,10.30
2022-12-25T12:01:34.208Z,10.88
2022-12-25T12:04:07.010Z,23.75
2022-12-25T12:07:18.986Z,6.80
2022-12-25T12:09:58.407Z,6.70
2022-12-25T12:13:00.964Z,4.70
2022-12-25T12:15:44.736Z,15.75
2022-12-25T12:18:24.084Z,6.60
2022-12-25T12:21:17.469Z,4.85
2022-12-25T12:24:12.037Z,5.80
2022-12-25T12:26:43.609Z,4.70
2022-12-25T12:29:31.383Z,7.45
2022-12-25T12:32:04.899Z,8.55
2022-12-25T12:34:43.956Z,10.50
2022-12-25T12:37:35.566Z,5.60
2022-12-25T12:40:05.797Z,9.02
2022-12-25T12:42:45.117Z,6.30
2022-12-25T12:45:33.764Z,9.30
2022-12-25T12:48:01.831Z,8.40
2022-12-25T12:50:36.109Z,9.73
2022-12-25T12:53:21.849Z,6.95
2022-12-25T12:55:50.512Z,6.97
2022-12-25T12:58:33.735Z,7.18
2022-12-25T13:01:27.054Z,6.50
2022-12-25T13:04:26.211Z,5.15
2022-12-25T13:07:10.213Z,7.53
2022-12-25T13:10:11.564Z,8.10
2022-12-25T13:12:39.157Z,9.27
2022-12-25T13:15:14.134Z,11.38
2022-12-25T13:17:46.872Z,6.70
2022-12-25T13:20:34.542Z,8.48
2022-12-25T13:23:12.438Z,8.20
2022-12-25T13:25:39.948Z,9.93
2022-12-25T13:28:14.781Z,6.40
2022-12-25T13:30:42.768Z,10.02
2022-12-25T13:33:19.651Z,11.20
2022-12-25T13:35:47.626Z,10.57
2022-12-25T13:38:18.176Z,9.13
2022-12-25T13:41:13.722Z,13.18
2022-12-25T13:43:44.167Z,11.38
2022-12-25T13:46:15.284Z,10.20
2022-12-25T13:48:42.913Z,8.75
2022-12-25T13:51:16.806Z,9.52
2022-12-25T13:53:44.248Z,10.98
2022-12-25T13:56:16.287Z,10.50
2022-12-25T13:58:47.782Z,14.15
2022-12-25T14:01:16.603Z,25.42
2022-12-25T14:03:47.506Z,26.20
2022-12-25T14:06:17.757Z,13.05
2022-12-25T14:08:46.298Z,9.68
2022-12-25T14:11:20.885Z,8.98
2022-12-25T14:13:54.186Z,15.50
2022-12-25T14:16:22.513Z,12.07
2022-12-25T14:18:59.835Z,9.52
2022-12-25T14:21:34.623Z,11.73
2022-12-25T14:24:02.424Z,10.00
2022-12-25T14:26:33.383Z,10.50
2022-12-25T14:29:16.564Z,10.60
2022-12-25T14:31:47.015Z,19.05
2022-12-25T14:34:22.724Z,37.13
2022-12-25T14:36:52.577Z,31.95
2022-12-25T14:39:36.501Z,39.92
2022-12-25T14:42:22.202Z,30.25
2022-12-25T14:44:59.097Z,27.60
2022-12-25T14:47:27.534Z,68.13
2022-12-25T14:52:39.831Z,23.07
2022-12-25T14:55:19.711Z,27.00
2022-12-25T14:58:06.183Z,27.25
2022-12-25T15:00:38.006Z,27.45
2022-12-25T15:03:26.564Z,29.42
2022-12-25T15:06:05.987Z,22.35
2022-12-25T15:08:35.360Z,24.02
2022-12-25T15:11:03.588Z,23.92
2022-12-25T15:13:32.481Z,27.30
2022-12-25T15:16:08.948Z,29.13
2022-12-25T15:18:43.697Z,33.65
2022-12-25T15:21:21.491Z,35.03
2022-12-25T15:23:48.927Z,34.72
2022-12-25T15:26:16.683Z,33.35
2022-12-25T15:28:44.135Z,33.72
2022-12-25T15:31:29.061Z,41.60
2022-12-25T15:34:00.362Z,41.33
2022-12-25T15:36:28.245Z,45.17
2022-12-25T15:38:56.456Z,48.72
2022-12-25T15:41:50.677Z,45.65
2022-12-25T15:44:18.648Z,82.00
2022-12-25T15:46:46.592Z,67.95
2022-12-25T15:49:15.729Z,73.82
2022-12-25T15:51:44.880Z,92.15
2022-12-25T15:54:12.847Z,88.80
2022-12-25T15:56:44.394Z,81.60
2022-12-25T15:59:14.535Z,72.72
2022-12-25T16:01:48.155Z,76.03
2022-12-25T16:04:15.737Z,67.72
2022-12-25T16:06:43.265Z,76.60
2022-12-25T16:09:15.184Z,74.15
2022-12-25T16:11:43.728Z,98.38
2022-12-25T16:14:11.782Z,77.22
2022-12-25T16:16:39.774Z,53.95
2022-12-25T16:19:07.554Z,51.20
2022-12-25T16:21:52.959Z,33.88
2022-12-25T16:24:20.307Z,32.97
2022-12-25T16:26:47.712Z,31.50
2022-12-25T16:29:15.271Z,27.95
2022-12-25T16:31:42.869Z,40.93
2022-12-25T16:34:10.602Z,36.57
2022-12-25T16:36:38.120Z,33.05
2022-12-25T16:39:05.984Z,35.78
2022-12-25T16:41:34.359Z,31.63
2022-12-25T16:44:10.161Z,31.23
2022-12-25T16:46:40.428Z,30.95
2022-12-25T16:49:08.728Z,29.27
2022-12-25T16:51:36.186Z,32.53
2022-12-25T16:54:03.834Z,31.38
2022-12-25T16:56:32.388Z,39.05
2022-12-25T17:01:29.080Z,96.18
2022-12-25T17:04:01.575Z,94.72
2022-12-25T17:06:29.573Z,70.60
2022-12-25T17:08:59.982Z,69.65
2022-12-25T17:11:29.933Z,68.60
2022-12-25T17:14:02.078Z,55.60
2022-12-25T17:16:33.405Z,21.38
2022-12-25T17:19:07.905Z,16.92
2022-12-25T17:21:38.325Z,17.58
2022-12-25T17:24:06.694Z,27.42
2022-12-25T17:26:34.225Z,20.95
2022-12-25T17:29:02.138Z,18.55
2022-12-25T17:31:30.176Z,21.75
2022-12-25T17:33:57.756Z,32.33
2022-12-25T17:36:25.157Z,38.90
2022-12-25T17:38:52.936Z,32.95
2022-12-25T17:41:21.351Z,32.13
2022-12-25T17:43:48.754Z,26.60
2022-12-25T17:46:20.107Z,32.75
2022-12-25T17:48:50.048Z,29.40
2022-12-25T17:51:22.048Z,25.38
2022-12-25T17:53:53.362Z,22.23
2022-12-25T17:56:22.820Z,25.10
2022-12-25T17:58:56.665Z,17.02
2022-12-25T18:01:26.472Z,15.40
2022-12-25T18:03:55.309Z,16.77
2022-12-25T18:06:25.799Z,17.17
2022-12-25T18:08:56.392Z,15.88
2022-12-25T18:11:29.261Z,15.18
2022-12-25T18:13:58.252Z,15.80
2022-12-25T18:16:27.257Z,18.17
2022-12-25T18:18:54.849Z,17.75
2022-12-25T18:21:23.243Z,20.00
2022-12-25T18:23:50.703Z,15.50
2022-12-25T18:26:20.446Z,12.95
2022-12-25T18:28:49.604Z,14.02
2022-12-25T18:31:23.685Z,13.90
2022-12-25T18:33:52.155Z,14.68
2022-12-25T18:36:25.928Z,16.70
2022-12-25T18:38:55.109Z,18.02
2022-12-25T18:41:23.373Z,17.83
2022-12-25T18:43:53.920Z,20.33
2022-12-25T18:46:27.667Z,13.52
2022-12-25T18:48:56.576Z,12.23
2022-12-25T18:51:24.718Z,11.77
2022-12-25T18:53:52.179Z,14.10
2022-12-25T18:56:20.684Z,11.52
2022-12-25T18:58:48.089Z,16.27
2022-12-25T19:01:21.984Z,14.15
2022-12-25T19:03:51.711Z,16.23
2022-12-25T19:06:27.984Z,12.98
2022-12-25T19:08:56.318Z,14.88
2022-12-25T19:11:23.781Z,15.43
2022-12-25T19:13:51.220Z,13.57
2022-12-25T19:16:18.810Z,10.83
2022-12-25T19:18:46.509Z,14.30
2022-12-25T19:21:14.034Z,12.40
2022-12-25T19:23:41.470Z,14.25
2022-12-25T19:26:11.274Z,14.32
2022-12-25T19:28:40.167Z,16.35
2022-12-25T19:31:09.944Z,14.45
2022-12-25T19:33:41.765Z,14.85
2022-12-25T19:36:13.060Z,14.10
2022-12-25T19:38:41.623Z,15.68
2022-12-25T19:43:47.523Z,9.63
2022-12-25T19:46:19.689Z,11.63
2022-12-25T19:48:47.782Z,9.10
2022-12-25T19:51:19.493Z,13.15
2022-12-25T19:53:47.274Z,11.40
2022-12-25T19:56:15.414Z,12.35
2022-12-25T19:58:43.377Z,9.60
2022-12-25T20:01:18.509Z,10.43
2022-12-25T20:03:48.600Z,13.50
2022-12-25T20:06:22.046Z,10.60
2022-12-25T20:08:53.811Z,11.32
2022-12-25T20:11:24.053Z,10.02
2022-12-25T20:13:51.858Z,7.78
2022-12-25T20:16:19.372Z,6.63
2022-12-25T20:18:46.918Z,6.28
2022-12-25T20:21:21.354Z,5.35
2022-12-25T20:23:52.059Z,5.18
2022-12-25T20:26:24.280Z,5.45
2022-12-25T20:28:52.482Z,30.83
2022-12-25T20:31:27.254Z,145.80
2022-12-25T20:34:03.449Z,120.32
2022-12-25T20:36:36.377Z,206.00
2022-12-25T20:39:09.884Z,196.35
2022-12-25T20:41:38.985Z,197.32
2022-12-25T20:44:09.926Z,188.10
2022-12-25T20:46:37.478Z,150.45
2022-12-25T20:49:05.436Z,86.50
2022-12-25T20:51:33.122Z,119.22
2022-12-25T20:54:01.220Z,94.13
2022-12-25T20:56:29.984Z,87.45
2022-12-25T20:59:00.117Z,99.43
2022-12-25T21:01:30.451Z,94.72
2022-12-25T21:03:58.630Z,152.55
2022-12-25T21:06:26.259Z,148.00
2022-12-25T21:08:53.745Z,153.60
2022-12-25T21:11:22.009Z,100.70
2022-12-25T21:13:49.848Z,15.35
2022-12-25T21:16:22.233Z,14.80
2022-12-25T21:18:53.145Z,16.15
2022-12-25T21:21:22.095Z,20.30
2022-12-25T21:23:49.858Z,31.70
2022-12-25T21:26:20.286Z,25.67
2022-12-25T21:28:49.551Z,72.15
2022-12-25T21:31:18.784Z,48.13
2022-12-25T21:33:52.401Z,39.55
2022-12-25T21:36:27.311Z,34.17
2022-12-25T21:39:02.161Z,32.95
2022-12-25T21:41:31.545Z,32.28
2022-12-25T21:43:59.624Z,29.88
2022-12-25T21:48:56.663Z,36.13
2022-12-25T21:51:49.607Z,22.88
2022-12-25T21:54:19.575Z,31.05
2022-12-25T21:56:48.208Z,23.33
2022-12-25T22:01:48.274Z,10.70
2022-12-25T22:04:18.417Z,11.32
2022-12-25T22:07:04.827Z,11.15
2022-12-25T22:09:32.851Z,10.18
2022-12-25T22:12:18.828Z,10.73
2022-12-25T22:14:55.433Z,8.88
2022-12-25T22:18:05.596Z,6.70
2022-12-25T22:20:38.502Z,6.43
2022-12-25T22:23:06.033Z,6.15
2022-12-25T22:25:33.439Z,6.28
2022-12-25T22:28:00.824Z,6.45
2022-12-25T22:30:29.739Z,6.32
2022-12-25T22:32:57.462Z,6.30
2022-12-25T22:35:24.951Z,6.57
2022-12-25T22:37:53.979Z,6.25
2022-12-25T22:40:21.894Z,5.57
2022-12-25T22:42:49.553Z,5.53
2022-12-25T22:45:17.127Z,5.77
2022-12-25T22:47:44.572Z,5.22
2022-12-25T22:50:15.068Z,5.53
2022-12-25T22:52:45.686Z,5.47
2022-12-25T22:55:18.267Z,5.60
2022-12-25T22:57:45.747Z,5.50
2022-12-25T23:00:13.925Z,6.50
2022-12-25T23:02:41.477Z,6.35
2022-12-25T23:05:09.333Z,6.15
2022-12-25T23:07:36.806Z,5.53
2022-12-25T23:10:06.361Z,5.15
2022-12-25T23:12:52.068Z,5.30
2022-12-25T23:15:19.512Z,4.97
2022-12-25T23:18:05.162Z,5.53
2022-12-25T23:20:51.846Z,5.13
2022-12-25T23:23:37.868Z,4.65
2022-12-25T23:26:08.200Z,4.63
2022-12-25T23:29:00.265Z,4.55
2022-12-25T23:31:39.711Z,4.40
2022-12-25T23:34:08.643Z,4.32
2022-12-25T23:36:36.623Z,4.38
2022-12-25T23:39:09.554Z,5.13
2022-12-25T23:41:42.681Z,5.10
2022-12-25T23:44:12.805Z,5.30
2022-12-25T23:46:41.770Z,5.45
2022-12-25T23:49:22.392Z,5.18
2022-12-25T23:51:50.049Z,4.53
2022-12-25T23:54:22.235Z,4.67
2022-12-25T23:56:50.703Z,5.45
